| time (UTC) | temp F | wind direction | speed MPH | gust MPH | rain 1hr in | rain 24hr in | rain mn in | humidity % | barometer mb |
| 20260508014530 | 63 | 0 | 1.0 | 5.0 | 0.00 | 0.00 | 0.00 | 57 | 1009.8 |
| 20260508013031 | 63 | 230 | 2.0 | 5.0 | 0.00 | 0.00 | 0.00 | 57 | 1009.7 |
| 20260508011530 | 64 | 0 | 1.0 | 7.0 | 0.00 | 0.00 | 0.00 | 55 | 1009.7 |
| 20260508010030 | 65 | 239 | 1.0 | 7.0 | 0.00 | 0.00 | 0.00 | 53 | 1009.7 |
| 20260508004529 | 66 | 171 | 2.0 | 6.0 | 0.00 | 0.00 | 0.00 | 50 | 1009.6 |
| 20260508003032 | 67 | 241 | 2.0 | 8.0 | 0.00 | 0.00 | 0.00 | 49 | 1009.6 |
| 20260508001531 | 68 | 223 | 2.0 | 9.0 | 0.00 | 0.00 | 0.00 | 48 | 1009.7 |
| 20260508000029 | 68 | 258 | 4.0 | 11.0 | 0.00 | 0.00 | 0.00 | 47 | 1009.9 |
| 20260507234539 | 68 | 253 | 4.0 | 10.0 | 0.00 | 0.00 | 0.00 | 46 | 1009.9 |
| 20260507233030 | 69 | 223 | 4.0 | 12.0 | 0.00 | 0.00 | 0.00 | 45 | 1010.1 |
| 20260507231531 | 70 | 292 | 4.0 | 12.0 | 0.00 | 0.00 | 0.00 | 44 | 1010.2 |
| 20260507230032 | 69 | 272 | 4.0 | 13.0 | 0.00 | 0.00 | 0.00 | 46 | 1010.4 |
| 20260507224531 | 69 | 319 | 5.0 | 14.0 | 0.00 | 0.00 | 0.00 | 45 | 1010.6 |
| 20260507223030 | 70 | 275 | 4.0 | 14.0 | 0.00 | 0.00 | 0.00 | 46 | 1010.7 |
| 20260507221530 | 70 | 287 | 4.0 | 14.0 | 0.00 | 0.00 | 0.00 | 46 | 1010.7 |
| 20260507220030 | 69 | 273 | 4.0 | 17.0 | 0.00 | 0.00 | 0.00 | 46 | 1010.8 |
| 20260507214530 | 69 | 303 | 9.0 | 17.0 | 0.00 | 0.00 | 0.00 | 45 | 1010.8 |
| 20260507213032 | 68 | 227 | 5.0 | 14.0 | 0.00 | 0.00 | 0.00 | 48 | 1011.1 |
| 20260507211528 | 68 | 200 | 5.0 | 18.0 | 0.00 | 0.00 | 0.00 | 47 | 1011.2 |
| 20260507210030 | 68 | 223 | 7.0 | 21.0 | 0.00 | 0.00 | 0.00 | 48 | 1011.4 |
| 20260507204530 | 68 | 259 | 8.0 | 19.0 | 0.00 | 0.00 | 0.00 | 49 | 1011.7 |
| 20260507203030 | 67 | 252 | 7.0 | 19.0 | 0.00 | 0.00 | 0.00 | 51 | 1011.9 |
| 20260507201536 | 67 | 238 | 8.0 | 20.0 | 0.00 | 0.00 | 0.00 | 49 | 1012.3 |
| 20260507200035 | 67 | 219 | 7.0 | 16.0 | 0.00 | 0.00 | 0.00 | 51 | 1012.5 |
| 20260507194532 | 66 | 292 | 7.0 | 16.0 | 0.00 | 0.00 | 0.00 | 54 | 1012.9 |
| 20260507193031 | 65 | 263 | 7.0 | 19.0 | 0.00 | 0.00 | 0.00 | 52 | 1013.0 |
| 20260507191534 | 65 | 169 | 9.0 | 21.0 | 0.00 | 0.00 | 0.00 | 52 | 1013.1 |
| 20260507190031 | 65 | 235 | 5.0 | 15.0 | 0.00 | 0.00 | 0.00 | 56 | 1013.1 |
| 20260507184529 | 65 | 248 | 8.0 | 17.0 | 0.00 | 0.00 | 0.00 | 54 | 1013.5 |
| 20260507183041 | 64 | 229 | 8.0 | 16.0 | 0.00 | 0.00 | 0.00 | 55 | 1013.5 |
| 20260507181530 | 64 | 230 | 7.0 | 16.0 | 0.00 | 0.00 | 0.00 | 53 | 1013.7 |
| 20260507180033 | 63 | 229 | 7.0 | 16.0 | 0.00 | 0.00 | 0.00 | 56 | 1013.9 |
| 20260507174534 | 63 | 286 | 10.0 | 19.0 | 0.00 | 0.00 | 0.00 | 54 | 1014.2 |
| 20260507173034 | 63 | 257 | 9.0 | 15.0 | 0.00 | 0.00 | 0.00 | 56 | 1014.4 |
| 20260507171532 | 63 | 219 | 7.0 | 18.0 | 0.00 | 0.00 | 0.00 | 55 | 1014.6 |
| 20260507170032 | 62 | 254 | 10.0 | 18.0 | 0.00 | 0.00 | 0.00 | 55 | 1014.9 |
| 20260507164534 | 61 | 236 | 5.0 | 14.0 | 0.00 | 0.00 | 0.00 | 58 | 1015.1 |
| 20260507163031 | 61 | 236 | 8.0 | 19.0 | 0.00 | 0.00 | 0.00 | 57 | 1015.3 |
| 20260507161529 | 61 | 285 | 5.0 | 15.0 | 0.00 | 0.00 | 0.00 | 59 | 1015.3 |
| 20260507160035 | 61 | 248 | 5.0 | 12.0 | 0.00 | 0.00 | 0.00 | 59 | 1015.4 |
| 20260507154533 | 60 | 305 | 5.0 | 15.0 | 0.00 | 0.00 | 0.00 | 60 | 1015.7 |
| 20260507153031 | 59 | 245 | 5.0 | 11.0 | 0.00 | 0.00 | 0.00 | 64 | 1015.8 |
| 20260507151530 | 58 | 221 | 6.0 | 15.0 | 0.00 | 0.00 | 0.00 | 63 | 1015.8 |
| 20260507150028 | 57 | 302 | 5.0 | 13.0 | 0.00 | 0.00 | 0.00 | 63 | 1016.1 |
| 20260507144532 | 56 | 264 | 4.0 | 12.0 | 0.00 | 0.00 | 0.00 | 66 | 1016.3 |
| 20260507143053 | 55 | 230 | 4.0 | 9.0 | 0.00 | 0.00 | 0.00 | 69 | 1016.3 |
| 20260507141539 | 54 | 252 | 3.0 | 12.0 | 0.00 | 0.00 | 0.00 | 71 | 1016.2 |
| 20260507140028 | 53 | 281 | 2.0 | 10.0 | 0.00 | 0.00 | 0.00 | 75 | 1016.4 |
| 20260507134530 | 52 | 310 | 4.0 | 11.0 | 0.00 | 0.00 | 0.00 | 75 | 1016.3 |
| 20260507133028 | 51 | 272 | 3.0 | 11.0 | 0.00 | 0.00 | 0.00 | 76 | 1016.4 |
| 20260507131537 | 51 | 324 | 2.0 | 9.0 | 0.00 | 0.00 | 0.00 | 78 | 1016.4 |
| 20260507130039 | 49 | 249 | 3.0 | 8.0 | 0.00 | 0.00 | 0.00 | 78 | 1016.5 |
| 20260507124531 | 48 | 279 | 3.0 | 8.0 | 0.00 | 0.00 | 0.00 | 80 | 1016.5 |
| 20260507123031 | 47 | 242 | 3.0 | 7.0 | 0.00 | 0.00 | 0.00 | 80 | 1016.6 |
| 20260507121528 | 47 | 249 | 3.0 | 8.0 | 0.00 | 0.00 | 0.00 | 81 | 1016.6 |
| 20260507120028 | 46 | 237 | 2.0 | 4.0 | 0.00 | 0.00 | 0.00 | 82 | 1016.5 |
| 20260507114532 | 45 | 259 | 2.0 | 6.0 | 0.00 | 0.00 | 0.00 | 82 | 1016.4 |
| 20260507113031 | 45 | 262 | 2.0 | 5.0 | 0.00 | 0.00 | 0.00 | 81 | 1016.5 |
| 20260507111530 | 45 | 261 | 2.0 | 4.0 | 0.00 | 0.00 | 0.00 | 81 | 1016.5 |
| 20260507110029 | 45 | 242 | 1.0 | 4.0 | 0.00 | 0.00 | 0.00 | 81 | 1016.4 |
| 20260507104528 | 45 | 242 | 1.0 | 4.0 | 0.00 | 0.00 | 0.00 | 80 | 1016.3 |
| 20260507103032 | 45 | 244 | 1.0 | 4.0 | 0.00 | 0.00 | 0.00 | 80 | 1016.4 |
| 20260507101530 | 45 | 0 | 0.0 | 4.0 | 0.00 | 0.00 | 0.00 | 80 | 1016.5 |
| 20260507100036 | 44 | 254 | 1.0 | 5.0 | 0.00 | 0.00 | 0.00 | 81 | 1016.5 |
| 20260507094531 | 44 | 238 | 0.0 | 4.0 | 0.00 | 0.00 | 0.00 | 81 | 1016.5 |
| 20260507093028 | 43 | 0 | 0.0 | 3.0 | 0.00 | 0.00 | 0.00 | 81 | 1016.6 |
| 20260507091534 | 44 | 0 | 0.0 | 3.0 | 0.00 | 0.00 | 0.00 | 81 | 1016.7 |
| 20260507090032 | 44 | 0 | 0.0 | 2.0 | 0.00 | 0.00 | 0.00 | 80 | 1016.7 |
| 20260507084531 | 44 | 0 | 0.0 | 2.0 | 0.00 | 0.00 | 0.00 | 80 | 1016.9 |
| 20260507083030 | 44 | 241 | 1.0 | 3.0 | 0.00 | 0.00 | 0.00 | 81 | 1016.9 |
| 20260507081530 | 44 | 221 | 0.0 | 2.0 | 0.00 | 0.00 | 0.00 | 79 | 1017.0 |
| 20260507080031 | 45 | 0 | 0.0 | 2.0 | 0.00 | 0.00 | 0.00 | 78 | 1016.9 |
| 20260507074528 | 45 | 0 | 0.0 | 4.0 | 0.00 | 0.00 | 0.00 | 77 | 1016.9 |
| 20260507073032 | 45 | 0 | 0.0 | 3.0 | 0.00 | 0.00 | 0.00 | 78 | 1016.9 |
| 20260507071534 | 45 | 0 | 0.0 | 3.0 | 0.00 | 0.00 | 0.00 | 77 | 1017.2 |
| 20260507070033 | 45 | 0 | 0.0 | 2.0 | 0.00 | 0.00 | 0.00 | 75 | 1017.4 |
| 20260507064548 | 46 | 0 | 0.0 | 2.0 | 0.00 | 0.01 | 0.00 | 73 | 1017.5 |
| 20260507063033 | 47 | 241 | 0.0 | 3.0 | 0.00 | 0.01 | 0.00 | 73 | 1017.5 |
| 20260507061530 | 47 | 0 | 0.0 | 4.0 | 0.00 | 0.01 | 0.00 | 73 | 1017.5 |
| 20260507060032 | 46 | 269 | 1.0 | 5.0 | 0.00 | 0.01 | 0.00 | 80 | 1017.6 |
| 20260507054529 | 46 | 0 | 0.0 | 1.0 | 0.00 | 0.02 | 0.00 | 82 | 1017.6 |
| 20260507053031 | 46 | 0 | 0.0 | 2.0 | 0.00 | 0.02 | 0.00 | 83 | 1017.6 |
| 20260507051529 | 46 | 0 | 0.0 | 0.0 | 0.00 | 0.02 | 0.00 | 85 | 1017.6 |
| 20260507050040 | 45 | 0 | 0.0 | 2.0 | 0.00 | 0.02 | 0.00 | 87 | 1017.6 |
| 20260507044528 | 44 | 0 | 0.0 | 0.0 | 0.00 | 0.03 | 0.02 | 89 | 1017.7 |
| 20260507043030 | 44 | 0 | 0.0 | 1.0 | 0.00 | 0.03 | 0.02 | 88 | 1017.6 |
| 20260507041532 | 44 | 0 | 0.0 | 0.0 | 0.00 | 0.03 | 0.02 | 88 | 1017.5 |
| 20260507040030 | 44 | 0 | 0.0 | 0.0 | 0.00 | 0.03 | 0.02 | 86 | 1017.8 |
| 20260507034531 | 43 | 0 | 0.0 | 0.0 | 0.00 | 0.03 | 0.02 | 85 | 1017.7 |
| 20260507033028 | 44 | 0 | 0.0 | 0.0 | 0.00 | 0.03 | 0.02 | 83 | 1017.9 |
| 20260507031533 | 44 | 0 | 0.0 | 0.0 | 0.00 | 0.03 | 0.02 | 81 | 1017.7 |
| 20260507030035 | 45 | 0 | 0.0 | 0.0 | 0.00 | 0.03 | 0.02 | 78 | 1017.8 |
| 20260507024533 | 45 | 0 | 0.0 | 0.0 | 0.00 | 0.03 | 0.02 | 75 | 1017.7 |
| 20260507023031 | 46 | 0 | 0.0 | 0.0 | 0.00 | 0.03 | 0.02 | 71 | 1017.5 |
| 20260507021531 | 48 | 0 | 0.0 | 0.0 | 0.00 | 0.03 | 0.02 | 68 | 1017.5 |
| 20260507020034 | 49 | 0 | 0.0 | 0.0 | 0.00 | 0.03 | 0.02 | 62 | 1017.3 |